Time;durP1;ratioP1;P1;durP2;ratioP2;P2;SDS_P1;SDS_P2;PMS_P1;PMS_P2;Temp;Humidity;BMP_temperature;BMP_pressure;BME280_temperature;BME280_humidity;BME280_pressure;Samples;Min_cycle;Max_cycle;Signal;HPM_P1;HPM_P2
2023/08/27 00:01:41;;;;;;;3.58;2.47;;;13.60;99.90;;;;;;5097292;28;20526;-73
2023/08/27 00:04:06;;;;;;;2.85;1.70;;;13.60;99.90;;;;;;5115307;28;20027;-73
2023/08/27 00:06:32;;;;;;;8.15;3.30;;;13.60;99.90;;;;;;5115176;28;20027;-73
2023/08/27 00:08:57;;;;;;;6.55;3.00;;;13.70;99.90;;;;;;5096881;28;20028;-73
2023/08/27 00:11:23;;;;;;;4.63;2.30;;;13.70;99.90;;;;;;5115055;28;20026;-73
2023/08/27 00:13:48;;;;;;;4.88;2.78;;;13.80;99.90;;;;;;5115102;28;20024;-73
2023/08/27 00:16:14;;;;;;;5.20;2.95;;;13.80;99.90;;;;;;5114856;28;20072;-73
2023/08/27 00:18:40;;;;;;;3.60;2.55;;;13.90;99.90;;;;;;5115415;28;20023;-73
2023/08/27 00:21:06;;;;;;;9.23;2.97;;;13.90;99.90;;;;;;5115021;28;20031;-73
2023/08/27 00:23:31;;;;;;;3.42;2.40;;;14.00;99.90;;;;;;5115269;28;20494;-73
2023/08/27 00:25:57;;;;;;;5.22;3.10;;;14.20;99.90;;;;;;5114820;28;20023;-73
2023/08/27 00:28:23;;;;;;;5.82;3.13;;;14.00;99.90;;;;;;5114782;28;20026;-73
2023/08/27 00:30:48;;;;;;;5.45;2.80;;;14.00;99.90;;;;;;5114980;28;20020;-73
2023/08/27 00:33:14;;;;;;;4.50;2.08;;;14.00;99.90;;;;;;5114642;28;20493;-73
2023/08/27 00:35:42;;;;;;;2.97;2.13;;;14.00;99.90;;;;;;5114519;28;20068;-73
2023/08/27 00:38:07;;;;;;;3.78;2.30;;;14.00;99.90;;;;;;5114743;28;20043;-73
2023/08/27 00:40:33;;;;;;;3.90;2.70;;;14.00;99.90;;;;;;5114618;28;20027;-73
2023/08/27 00:42:59;;;;;;;4.55;3.17;;;14.00;99.90;;;;;;5114408;28;20024;-73
2023/08/27 00:45:25;;;;;;;8.50;3.85;;;14.00;99.90;;;;;;5114429;28;20105;-73
2023/08/27 00:47:51;;;;;;;3.88;2.50;;;13.90;99.90;;;;;;5114427;28;20019;-73
2023/08/27 00:50:17;;;;;;;7.55;2.50;;;13.90;99.90;;;;;;5096135;28;20114;-73
2023/08/27 00:52:43;;;;;;;3.35;2.60;;;13.90;99.90;;;;;;5114426;28;20020;-73
2023/08/27 00:55:09;;;;;;;4.13;2.65;;;13.80;99.90;;;;;;5114177;28;20041;-73
2023/08/27 00:57:39;;;;;;;3.88;3.13;;;13.80;99.90;;;;;;5114370;28;20015;-73
2023/08/27 01:00:09;;;;;;;3.45;2.58;;;13.70;99.90;;;;;;5113316;28;20019;-73
2023/08/27 01:02:35;;;;;;;7.90;3.15;;;13.70;99.90;;;;;;5114393;28;20038;-73
2023/08/27 01:05:01;;;;;;;6.45;2.40;;;16.90;99.90;;;;;;5113981;28;20015;-73
2023/08/27 01:07:46;;;;;;;3.10;2.58;;;13.60;99.90;;;;;;5095765;28;20024;-73
2023/08/27 01:10:23;;;;;;;4.75;2.95;;;13.60;99.90;;;;;;5114203;28;20028;-73
2023/08/27 01:13:05;;;;;;;3.53;2.58;;;13.50;99.90;;;;;;5095909;28;20050;-73
2023/08/27 01:15:32;;;;;;;9.27;3.20;;;13.50;99.90;;;;;;5095850;28;20024;-73
2023/08/27 01:18:03;;;;;;;5.10;2.90;;;13.50;99.90;;;;;;5095667;28;20438;-73
2023/08/27 01:20:30;;;;;;;5.57;3.08;;;13.50;99.90;;;;;;5113978;28;20055;-73
2023/08/27 01:22:56;;;;;;;8.43;3.03;;;13.50;99.90;;;;;;5095669;28;20148;-73
2023/08/27 01:25:27;;;;;;;3.63;2.50;;;13.40;99.90;;;;;;5113811;28;20019;-73
2023/08/27 01:28:14;;;;;;;4.65;2.70;;;13.40;99.90;;;;;;5113927;28;20032;-73
2023/08/27 01:30:47;;;;;;;7.20;2.53;;;13.40;99.90;;;;;;5113794;28;20028;-73
2023/08/27 01:33:21;;;;;;;3.63;2.72;;;13.40;99.90;;;;;;5095581;28;20026;-73
2023/08/27 01:35:47;;;;;;;5.13;2.35;;;13.50;99.90;;;;;;5113800;28;20034;-73
2023/08/27 01:38:13;;;;;;;6.28;2.55;;;13.50;99.90;;;;;;5113748;28;20023;-73
2023/08/27 01:40:40;;;;;;;3.88;2.30;;;13.50;99.90;;;;;;5113729;28;20023;-73
2023/08/27 01:43:06;;;;;;;2.20;1.77;;;13.50;99.90;;;;;;5113659;28;20109;-73
2023/08/27 01:45:31;;;;;;;4.53;2.28;;;13.60;99.90;;;;;;5113557;28;20153;-73
2023/08/27 01:47:57;;;;;;;4.10;2.30;;;13.60;99.90;;;;;;5113661;28;20024;-73
2023/08/27 01:50:22;;;;;;;2.83;2.33;;;13.60;99.90;;;;;;5113693;28;20024;-73
2023/08/27 01:52:48;;;;;;;5.28;2.45;;;13.60;99.90;;;;;;5113524;28;20030;-73
2023/08/27 01:55:14;;;;;;;5.03;2.55;;;13.60;99.90;;;;;;5113628;28;20444;-73
2023/08/27 01:57:39;;;;;;;4.93;2.20;;;13.60;99.90;;;;;;5113609;28;20498;-73
2023/08/27 02:00:08;;;;;;;4.07;2.00;;;13.60;99.90;;;;;;5113518;28;20024;-73
2023/08/27 02:02:36;;;;;;;5.38;1.92;;;13.60;99.90;;;;;;5095096;28;20034;-73
2023/08/27 02:05:04;;;;;;;3.10;1.60;;;13.60;99.90;;;;;;5113673;28;20111;-73
2023/08/27 02:07:30;;;;;;;6.28;2.08;;;13.50;99.90;;;;;;5113409;28;20031;-73
2023/08/27 02:09:56;;;;;;;4.55;2.65;;;13.50;99.90;;;;;;5113496;28;20020;-73
2023/08/27 02:12:21;;;;;;;4.43;1.90;;;13.50;99.90;;;;;;5117549;28;20020;-73
2023/08/27 02:14:47;;;;;;;2.47;1.85;;;13.50;99.90;;;;;;5117392;28;20068;-73
2023/08/27 02:17:13;;;;;;;2.40;1.58;;;13.50;99.90;;;;;;5099219;28;20031;-73
2023/08/27 02:19:38;;;;;;;3.97;1.73;;;13.50;99.90;;;;;;5117435;28;20024;-73
2023/08/27 02:22:04;;;;;;;2.80;1.80;;;13.50;99.90;;;;;;5098916;28;20100;-73
2023/08/27 02:24:29;;;;;;;2.22;1.50;;;13.60;99.90;;;;;;5098734;28;20023;-73
2023/08/27 02:26:55;;;;;;;2.97;1.70;;;13.60;99.90;;;;;;5098722;28;20032;-73
2023/08/27 02:29:20;;;;;;;2.53;1.83;;;13.60;99.90;;;;;;5117117;28;20027;-73
2023/08/27 02:31:46;;;;;;;2.13;1.45;;;13.70;99.90;;;;;;5117048;28;20050;-73
2023/08/27 02:34:11;;;;;;;2.05;1.00;;;13.60;99.90;;;;;;5117083;28;20061;-73
2023/08/27 02:36:37;;;;;;;3.85;2.20;;;13.60;99.90;;;;;;5116835;28;20015;-73
2023/08/27 02:39:03;;;;;;;3.60;1.23;;;13.70;99.90;;;;;;5116998;28;20037;-73
2023/08/27 02:41:28;;;;;;;5.93;1.70;;;13.70;99.90;;;;;;5098558;28;20020;-73
2023/08/27 02:43:54;;;;;;;3.55;1.55;;;13.70;99.90;;;;;;5116991;28;20070;-73
2023/08/27 02:46:19;;;;;;;4.28;1.50;;;13.70;99.90;;;;;;5116686;28;20025;-73
2023/08/27 02:48:45;;;;;;;5.00;1.73;;;13.70;99.90;;;;;;5116863;28;20024;-73
2023/08/27 02:51:10;;;;;;;2.63;1.27;;;13.80;99.90;;;;;;5116843;28;20095;-73
2023/08/27 02:53:36;;;;;;;2.67;1.58;;;13.80;99.90;;;;;;5116707;28;20026;-73
2023/08/27 02:56:02;;;;;;;3.90;1.63;;;13.80;99.90;;;;;;5116558;28;20027;-74
2023/08/27 02:58:28;;;;;;;2.47;1.52;;;13.80;99.90;;;;;;5116594;28;20103;-73
2023/08/27 03:00:53;;;;;;;1.83;1.30;;;13.80;99.90;;;;;;5098389;28;20156;-73
2023/08/27 03:03:19;;;;;;;7.68;2.45;;;13.90;99.90;;;;;;5116320;28;20039;-73
2023/08/27 03:05:45;;;;;;;2.92;1.23;;;13.90;99.90;;;;;;5116347;28;20402;-73
2023/08/27 03:08:11;;;;;;;5.90;1.60;;;13.90;99.90;;;;;;5116415;28;20090;-73
2023/08/27 03:10:36;;;;;;;5.38;1.73;;;13.90;99.90;;;;;;5116289;28;20098;-73
2023/08/27 03:13:02;;;;;;;1.70;1.40;;;13.90;99.90;;;;;;5116403;28;20062;-73
2023/08/27 03:15:28;;;;;;;4.18;1.83;;;13.90;99.90;;;;;;5116235;28;20069;-73
2023/08/27 03:17:53;;;;;;;5.25;1.80;;;14.00;99.90;;;;;;5116134;28;20030;-73
2023/08/27 03:20:19;;;;;;;2.28;1.15;;;13.90;99.90;;;;;;5116758;28;20019;-73
2023/08/27 03:22:45;;;;;;;2.38;1.50;;;14.00;99.90;;;;;;5115080;28;20058;-73
2023/08/27 03:25:10;;;;;;;3.20;1.92;;;14.00;99.90;;;;;;5116344;28;20023;-73
2023/08/27 03:27:36;;;;;;;2.05;1.13;;;14.00;99.90;;;;;;5116036;28;20055;-73
2023/08/27 03:30:03;;;;;;;3.15;1.92;;;14.00;99.90;;;;;;5097646;28;20015;-73
2023/08/27 03:32:29;;;;;;;4.90;1.20;;;14.00;99.90;;;;;;5116096;28;20008;-73
2023/08/27 03:34:55;;;;;;;2.60;1.58;;;14.00;99.90;;;;;;5115990;28;20210;-73
2023/08/27 03:37:20;;;;;;;6.20;1.45;;;14.10;99.90;;;;;;5115933;28;20020;-73
2023/08/27 03:39:46;;;;;;;4.45;2.63;;;14.10;99.90;;;;;;5115932;28;20028;-73
2023/08/27 03:42:11;;;;;;;4.20;2.13;;;14.10;99.90;;;;;;5097275;28;20066;-73
2023/08/27 03:44:37;;;;;;;4.05;1.70;;;14.10;99.90;;;;;;5116012;28;20047;-73
2023/08/27 03:47:04;;;;;;;4.38;1.83;;;14.10;99.90;;;;;;5116198;28;20019;-73
2023/08/27 03:49:30;;;;;;;2.28;1.75;;;14.10;99.90;;;;;;5097324;28;20019;-73
2023/08/27 03:51:55;;;;;;;4.47;1.70;;;14.20;99.90;;;;;;5115458;28;20027;-73
2023/08/27 03:54:21;;;;;;;2.70;1.48;;;14.20;99.90;;;;;;5115500;28;20020;-73
2023/08/27 03:56:46;;;;;;;7.10;1.77;;;14.10;99.90;;;;;;5115294;28;20424;-73
2023/08/27 03:59:12;;;;;;;5.10;2.05;;;14.10;99.90;;;;;;5115750;28;20425;-73
2023/08/27 04:01:37;;;;;;;6.22;2.10;;;14.10;99.90;;;;;;5115334;28;20032;-73
2023/08/27 04:04:03;;;;;;;4.63;2.05;;;14.20;99.90;;;;;;5115368;28;20031;-73
2023/08/27 04:06:29;;;;;;;4.32;2.22;;;14.20;99.90;;;;;;5096958;28;20394;-73
2023/08/27 04:08:54;;;;;;;4.93;2.17;;;14.20;99.90;;;;;;5115149;28;20471;-73
2023/08/27 04:11:20;;;;;;;8.60;2.05;;;14.20;99.90;;;;;;5115140;28;20012;-73
2023/08/27 04:13:45;;;;;;;8.50;3.05;;;14.20;99.90;;;;;;5115084;28;20024;-73
2023/08/27 04:16:12;;;;;;;5.13;2.58;;;14.20;99.90;;;;;;5114917;28;20050;-73
2023/08/27 04:18:37;;;;;;;5.93;2.17;;;14.20;99.90;;;;;;5114962;28;20432;-73
2023/08/27 04:21:03;;;;;;;6.10;2.33;;;14.60;99.90;;;;;;5114907;28;20019;-73
2023/08/27 04:23:29;;;;;;;3.65;2.17;;;14.20;99.90;;;;;;5115503;28;20140;-73
2023/08/27 04:25:55;;;;;;;3.72;2.10;;;14.20;99.90;;;;;;5114831;28;20027;-73
2023/08/27 04:28:21;;;;;;;5.13;2.50;;;14.20;99.90;;;;;;5114763;28;20023;-73
2023/08/27 04:30:48;;;;;;;5.68;2.47;;;14.20;99.90;;;;;;5114780;28;20020;-73
2023/08/27 04:33:14;;;;;;;5.15;2.90;;;14.30;99.90;;;;;;5096210;28;20012;-73
2023/08/27 04:35:40;;;;;;;6.38;2.85;;;14.20;99.90;;;;;;5114490;28;20024;-73
2023/08/27 04:38:07;;;;;;;10.57;3.17;;;14.30;99.90;;;;;;5114965;28;20387;-73
2023/08/27 04:40:33;;;;;;;6.72;3.05;;;14.30;99.90;;;;;;5114709;28;20471;-73
2023/08/27 04:42:59;;;;;;;8.02;3.28;;;14.30;99.90;;;;;;5114543;28;20106;-73
2023/08/27 04:45:24;;;;;;;6.47;3.42;;;14.30;99.90;;;;;;5114324;28;20470;-73
2023/08/27 04:47:50;;;;;;;5.35;3.20;;;14.40;99.90;;;;;;5114470;28;20024;-73
2023/08/27 04:50:16;;;;;;;8.25;3.38;;;14.30;99.90;;;;;;5114521;28;20020;-73
2023/08/27 04:52:41;;;;;;;8.02;3.88;;;14.40;99.90;;;;;;5114304;28;20019;-73
2023/08/27 04:55:07;;;;;;;6.22;3.25;;;14.30;99.90;;;;;;5114155;28;20382;-73
2023/08/27 04:57:34;;;;;;;11.02;3.22;;;14.30;99.90;;;;;;5114439;28;20098;-73
2023/08/27 05:00:09;;;;;;;6.13;3.05;;;14.30;99.90;;;;;;5114184;28;20030;-73
2023/08/27 05:02:35;;;;;;;6.43;3.10;;;14.30;99.90;;;;;;5095890;28;20038;-73
2023/08/27 05:05:01;;;;;;;5.85;3.35;;;14.20;99.90;;;;;;5113978;28;20367;-73
2023/08/27 05:07:27;;;;;;;6.97;3.10;;;14.20;99.90;;;;;;5114115;28;20026;-73
2023/08/27 05:09:52;;;;;;;5.45;2.95;;;14.20;99.90;;;;;;5114068;28;20012;-73
2023/08/27 05:12:18;;;;;;;7.30;2.88;;;14.20;99.90;;;;;;5095754;28;20030;-73
2023/08/27 05:14:43;;;;;;;7.45;2.55;;;14.20;99.90;;;;;;5114355;28;20023;-73
2023/08/27 05:17:10;;;;;;;7.15;3.00;;;14.20;99.90;;;;;;5113982;28;20466;-73
2023/08/27 05:19:36;;;;;;;4.93;3.10;;;14.10;99.90;;;;;;5114014;28;20077;-73
2023/08/27 05:22:02;;;;;;;6.03;3.05;;;14.30;99.90;;;;;;5114111;28;20473;-73
2023/08/27 05:24:27;;;;;;;6.15;2.95;;;14.30;99.90;;;;;;5113784;28;20050;-73
2023/08/27 05:26:53;;;;;;;6.00;2.90;;;14.30;99.90;;;;;;5113909;28;20038;-73
2023/08/27 05:29:18;;;;;;;4.13;2.60;;;14.30;99.90;;;;;;5095557;28;20028;-73
2023/08/27 05:31:44;;;;;;;4.85;2.58;;;14.40;99.90;;;;;;5114005;28;20432;-73
2023/08/27 05:34:10;;;;;;;5.35;2.92;;;14.50;99.90;;;;;;5113797;28;20391;-73
2023/08/27 05:36:35;;;;;;;3.97;2.42;;;14.50;99.90;;;;;;5113797;28;20038;-73
2023/08/27 05:39:01;;;;;;;4.88;2.65;;;14.60;99.90;;;;;;5113666;28;20079;-73
2023/08/27 05:41:26;;;;;;;10.02;2.60;;;14.70;99.90;;;;;;5113730;28;20054;-73
2023/08/27 05:43:52;;;;;;;7.32;2.55;;;14.70;99.90;;;;;;5113518;28;20020;-73
2023/08/27 05:46:18;;;;;;;9.23;1.95;;;14.80;99.90;;;;;;5115791;28;20150;-73
2023/08/27 05:48:43;;;;;;;5.97;2.22;;;14.90;99.90;;;;;;5118051;28;20022;-73
2023/08/27 05:51:09;;;;;;;2.92;2.00;;;15.00;99.90;;;;;;5118555;28;20061;-74
2023/08/27 05:53:34;;;;;;;4.18;2.50;;;15.00;99.90;;;;;;5117789;28;20502;-73
2023/08/27 05:56:00;;;;;;;4.65;2.58;;;15.00;99.90;;;;;;5117727;28;20028;-73
2023/08/27 05:58:26;;;;;;;6.22;2.05;;;15.00;99.90;;;;;;5099535;28;20028;-73
2023/08/27 06:00:53;;;;;;;3.42;2.13;;;15.00;99.90;;;;;;5117640;28;20064;-73
2023/08/27 06:03:19;;;;;;;5.05;1.77;;;15.00;99.90;;;;;;5117594;28;20028;-73
2023/08/27 06:05:45;;;;;;;4.95;1.95;;;15.00;99.90;;;;;;5117479;28;20032;-73
2023/08/27 06:08:11;;;;;;;5.32;2.30;;;15.00;99.90;;;;;;5117608;28;20491;-73
2023/08/27 06:10:36;;;;;;;4.47;1.90;;;14.90;99.90;;;;;;5117572;28;20060;-73
2023/08/27 06:13:03;;;;;;;3.35;1.40;;;14.90;99.90;;;;;;5117528;28;20388;-73
2023/08/27 06:15:29;;;;;;;3.28;1.52;;;14.90;99.90;;;;;;5117347;28;20068;-73
2023/08/27 06:17:55;;;;;;;8.70;2.05;;;14.90;99.90;;;;;;5117329;28;20023;-73
2023/08/27 06:20:21;;;;;;;4.30;1.25;;;14.90;99.90;;;;;;5117288;28;20058;-73
2023/08/27 06:22:46;;;;;;;3.63;1.23;;;15.00;99.90;;;;;;5117248;28;20043;-73
2023/08/27 06:25:12;;;;;;;3.75;1.33;;;15.10;99.90;;;;;;5117089;28;20031;-73
2023/08/27 06:27:38;;;;;;;4.45;1.30;;;15.10;99.90;;;;;;5098916;28;20114;-73
2023/08/27 06:30:05;;;;;;;3.13;1.23;;;15.20;99.90;;;;;;5117063;28;20024;-73
2023/08/27 06:32:31;;;;;;;6.50;1.70;;;15.30;99.90;;;;;;5116564;28;20027;-73
2023/08/27 06:34:56;;;;;;;3.03;1.30;;;15.30;99.90;;;;;;5117122;28;20050;-73
2023/08/27 06:37:22;;;;;;;5.05;1.63;;;15.40;99.90;;;;;;5116958;28;20023;-73
2023/08/27 06:39:49;;;;;;;3.75;1.52;;;15.50;99.90;;;;;;5116978;28;20031;-73
2023/08/27 06:42:15;;;;;;;2.75;1.23;;;15.60;99.90;;;;;;5098898;28;20482;-73
2023/08/27 06:44:41;;;;;;;5.78;1.17;;;15.60;99.90;;;;;;5116950;28;20046;-73
2023/08/27 06:47:07;;;;;;;4.13;1.73;;;15.70;99.90;;;;;;5116632;28;20027;-73
2023/08/27 06:49:32;;;;;;;6.50;1.15;;;15.70;99.90;;;;;;5116693;28;20467;-73
2023/08/27 06:51:58;;;;;;;4.57;1.52;;;15.70;99.90;;;;;;5117105;28;20028;-73
2023/08/27 06:54:23;;;;;;;5.05;1.95;;;15.80;99.90;;;;;;5098447;28;20076;-73
2023/08/27 06:56:49;;;;;;;5.82;1.52;;;15.80;99.90;;;;;;5116720;28;20035;-73
2023/08/27 06:59:15;;;;;;;13.40;1.88;;;16.00;99.90;;;;;;5117252;28;20019;-73
2023/08/27 07:01:40;;;;;;;6.18;2.13;;;16.10;99.90;;;;;;5116618;28;20031;-73
2023/08/27 07:04:06;;;;;;;10.73;2.40;;;16.10;99.90;;;;;;5116332;28;20035;-73
2023/08/27 07:06:31;;;;;;;9.88;3.17;;;16.20;99.90;;;;;;5116420;28;20387;-73
2023/08/27 07:08:57;;;;;;;4.07;2.28;;;16.20;99.90;;;;;;5116438;28;20051;-73
2023/08/27 07:11:22;;;;;;;5.65;2.17;;;16.20;99.90;;;;;;5116367;28;20016;-73
2023/08/27 07:13:51;;;;;;;10.63;3.03;;;16.20;99.90;;;;;;5098170;28;20042;-73
2023/08/27 07:16:16;;;;;;;6.50;2.85;;;16.20;99.90;;;;;;5116182;28;20035;-73
2023/08/27 07:18:42;;;;;;;4.80;2.95;;;16.40;99.90;;;;;;5097946;28;20032;-73
2023/08/27 07:21:08;;;;;;;5.43;3.30;;;16.60;99.90;;;;;;5116216;28;20023;-73
2023/08/27 07:23:33;;;;;;;8.07;3.53;;;16.60;99.90;;;;;;5097961;28;20023;-73
2023/08/27 07:25:59;;;;;;;5.35;3.10;;;16.70;99.90;;;;;;5115907;28;20452;-73
2023/08/27 07:28:24;;;;;;;8.20;3.67;;;16.70;99.90;;;;;;5116088;28;20470;-73
2023/08/27 07:30:50;;;;;;;6.68;3.40;;;16.80;99.90;;;;;;5116319;28;20015;-73
2023/08/27 07:33:17;;;;;;;4.85;3.33;;;16.90;99.90;;;;;;5116083;28;20093;-73
2023/08/27 07:35:43;;;;;;;7.20;3.60;;;16.90;99.90;;;;;;5116035;28;20023;-73
2023/08/27 07:38:09;;;;;;;7.65;3.47;;;17.00;99.90;;;;;;5115883;28;20019;-73
2023/08/27 07:40:37;;;;;;;6.65;4.07;;;17.00;99.90;;;;;;5115927;28;20032;-73
2023/08/27 07:43:04;;;;;;;6.63;3.03;;;17.10;99.90;;;;;;5115767;28;20019;-73
2023/08/27 07:45:29;;;;;;;7.88;4.40;;;17.10;99.90;;;;;;5115485;28;20055;-73
2023/08/27 07:47:58;;;;;;;5.57;3.67;;;17.00;99.90;;;;;;5115769;28;20052;-73
2023/08/27 07:50:24;;;;;;;;;;;17.00;99.90;;;;;;5116270;28;20019;-73
2023/08/27 07:52:50;;;;;;;9.48;4.57;;;16.90;99.90;;;;;;5115970;28;19904;-73
2023/08/27 07:55:16;;;;;;;12.95;4.47;;;16.80;99.90;;;;;;5115488;28;20360;-73
2023/08/27 07:57:41;;;;;;;7.20;4.93;;;16.80;99.90;;;;;;5116220;28;20023;-73
2023/08/27 08:00:08;;;;;;;11.57;4.82;;;16.70;99.90;;;;;;5115505;28;20484;-73
2023/08/27 08:02:33;;;;;;;15.73;4.85;;;16.70;99.90;;;;;;5096961;28;20034;-73
2023/08/27 08:04:59;;;;;;;10.40;4.90;;;16.80;99.90;;;;;;5115584;28;20031;-73
2023/08/27 08:07:25;;;;;;;7.38;4.18;;;16.80;99.90;;;;;;5115847;28;20023;-73
2023/08/27 08:09:51;;;;;;;8.45;4.20;;;16.90;99.90;;;;;;5114738;28;20072;-72
2023/08/27 08:12:16;;;;;;;6.05;3.75;;;17.00;99.90;;;;;;5115508;28;20028;-74
2023/08/27 08:14:42;;;;;;;7.47;3.75;;;17.30;99.90;;;;;;5115612;28;20020;-75
2023/08/27 08:17:08;;;;;;;7.20;3.80;;;17.60;99.90;;;;;;5116412;28;20047;-78
2023/08/27 08:19:34;;;;;;;7.95;4.07;;;17.70;99.90;;;;;;5117064;28;20131;-78
2023/08/27 08:22:00;;;;;;;5.88;4.05;;;17.90;99.90;;;;;;5117436;28;20513;-78
2023/08/27 08:24:26;;;;;;;4.53;2.75;;;18.50;99.90;;;;;;5116214;28;20076;-79
2023/08/27 08:26:52;;;;;;;6.60;3.17;;;18.70;99.90;;;;;;5115716;28;20596;-76
2023/08/27 08:29:19;;;;;;;5.43;2.78;;;18.60;99.90;;;;;;5115685;28;20379;-77
2023/08/27 08:31:45;;;;;;;6.80;2.58;;;;;;;;;;5115258;28;20047;-77
2023/08/27 08:34:11;;;;;;;3.85;2.20;;;18.40;99.90;;;;;;5115535;28;20081;-77
2023/08/27 08:36:37;;;;;;;3.28;2.80;;;18.50;99.90;;;;;;5097026;28;20019;-78
2023/08/27 08:39:03;;;;;;;3.88;2.45;;;18.50;99.90;;;;;;5115604;28;20051;-78
2023/08/27 08:41:28;;;;;;;8.00;2.47;;;19.00;99.90;;;;;;5097589;28;20486;-78
2023/08/27 08:44:20;;;;;;;4.97;2.35;;;19.00;99.90;;;;;;5116059;28;20047;-78
2023/08/27 08:46:48;;;;;;;5.22;1.83;;;19.20;99.90;;;;;;5115950;28;20034;-77
2023/08/27 08:49:15;;;;;;;3.97;2.47;;;19.20;99.90;;;;;;5115150;28;20020;-76
2023/08/27 08:51:42;;;;;;;3.80;2.67;;;19.30;99.90;;;;;;5114713;28;20051;-76
2023/08/27 08:54:10;;;;;;;5.38;1.83;;;19.00;99.90;;;;;;5115456;28;20019;-77
2023/08/27 08:56:40;;;;;;;5.68;2.47;;;18.80;99.90;;;;;;5115827;28;20440;-76
2023/08/27 08:59:06;;;;;;;2.65;1.35;;;18.50;99.90;;;;;;5117894;28;20390;-78
2023/08/27 09:01:32;;;;;;;3.05;1.30;;;18.30;99.90;;;;;;5117191;28;20030;-79
2023/08/27 09:03:59;;;;;;;3.08;1.15;;;18.00;99.90;;;;;;5098549;28;20424;-77
2023/08/27 09:06:26;;;;;;;2.58;1.73;;;17.90;99.90;;;;;;5098516;28;20046;-79
2023/08/27 09:08:53;;;;;;;1.75;1.05;;;17.70;99.90;;;;;;5097652;28;20475;-78
2023/08/27 09:11:22;;;;;;;2.65;1.77;;;17.50;99.90;;;;;;5096686;28;20024;-79
2023/08/27 09:13:47;;;;;;;4.47;1.85;;;17.30;99.90;;;;;;5115299;28;20011;-78
2023/08/27 09:16:14;;;;;;;4.45;1.63;;;17.20;99.90;;;;;;5117207;28;20031;-76
2023/08/27 09:18:40;;;;;;;20.90;2.28;;;17.10;99.90;;;;;;5115552;28;20103;-76
2023/08/27 09:21:06;;;;;;;4.75;2.20;;;17.10;99.90;;;;;;5113400;28;20482;-78
2023/08/27 09:23:37;;;;;;;4.00;2.30;;;17.10;99.90;;;;;;5114492;28;20020;-77
2023/08/27 09:26:06;;;;;;;4.30;2.78;;;17.10;99.90;;;;;;5097588;28;20509;-78
2023/08/27 09:28:35;;;;;;;1.95;1.58;;;17.20;99.90;;;;;;5114982;28;20023;-77
2023/08/27 09:31:04;;;;;;;2.70;1.17;;;17.30;99.90;;;;;;5116430;28;20034;-78
2023/08/27 09:33:40;;;;;;;;;;;17.40;99.90;;;;;;5116758;28;20024;-79
2023/08/27 09:36:09;;;;;;;1.85;0.70;;;17.50;99.90;;;;;;5117075;28;19947;-79
2023/08/27 09:38:35;;;;;;;3.22;0.30;;;17.50;99.90;;;;;;5116630;28;20031;-79
2023/08/27 09:41:17;;;;;;;0.47;0.10;;;17.50;99.90;;;;;;5096497;28;20095;-78
2023/08/27 09:43:53;;;;;;;0.65;0.00;;;17.70;99.90;;;;;;5096594;28;20020;-78
2023/08/27 09:46:19;;;;;;;0.22;0.00;;;17.80;99.90;;;;;;5114487;28;20031;-77
2023/08/27 09:48:57;;;;;;;0.40;0.20;;;18.00;99.90;;;;;;5114442;28;20068;-78
2023/08/27 09:51:23;;;;;;;1.85;0.20;;;18.30;99.90;;;;;;5114838;28;20026;-79
2023/08/27 09:53:48;;;;;;;0.82;0.00;;;18.60;99.90;;;;;;5115285;28;20428;-77
2023/08/27 09:56:16;;;;;;;1.88;0.30;;;18.70;99.90;;;;;;5115132;28;20024;-77
2023/08/27 09:58:41;;;;;;;0.75;0.15;;;18.80;99.90;;;;;;5115442;28;20055;-77
2023/08/27 10:01:08;;;;;;;1.35;0.10;;;18.70;99.90;;;;;;5115243;28;20023;-78
2023/08/27 10:03:34;;;;;;;0.20;0.00;;;18.70;99.90;;;;;;5095910;28;20514;-77
2023/08/27 10:06:02;;;;;;;0.10;0.00;;;18.50;99.90;;;;;;5114815;28;20035;-77
2023/08/27 10:08:28;;;;;;;1.27;0.20;;;18.40;99.90;;;;;;5116002;28;20065;-77
2023/08/27 10:11:10;;;;;;;1.85;0.00;;;18.20;99.90;;;;;;5116536;28;20016;-79
2023/08/27 10:13:39;;;;;;;0.80;0.00;;;18.20;99.90;;;;;;5097178;28;20478;-77
2023/08/27 10:16:05;;;;;;;0.00;0.00;;;18.10;99.90;;;;;;5096892;28;20176;-77
2023/08/27 10:18:32;;;;;;;0.95;0.00;;;18.00;99.90;;;;;;5115485;28;20168;-78
2023/08/27 10:20:58;;;;;;;0.25;0.00;;;17.90;99.90;;;;;;5115938;28;20046;-80
2023/08/27 10:23:25;;;;;;;0.00;0.00;;;17.70;99.90;;;;;;5098070;28;20034;-79
2023/08/27 10:25:53;;;;;;;0.30;0.00;;;17.60;99.90;;;;;;5115400;28;20024;-77
2023/08/27 10:28:19;;;;;;;0.60;0.00;;;17.40;99.90;;;;;;5115693;28;20034;-77
2023/08/27 10:30:45;;;;;;;0.75;0.00;;;17.30;99.90;;;;;;5115959;28;20030;-77
2023/08/27 10:33:11;;;;;;;0.00;0.00;;;17.30;99.90;;;;;;5118094;28;20106;-78
2023/08/27 10:35:39;;;;;;;0.00;0.00;;;17.10;99.90;;;;;;5100777;28;20061;-79
2023/08/27 10:38:06;;;;;;;0.77;0.00;;;16.80;99.90;;;;;;5119309;28;20030;-80
2023/08/27 10:40:34;;;;;;;0.10;0.00;;;17.00;99.90;;;;;;5119746;28;20019;-79
2023/08/27 10:43:16;;;;;;;0.05;0.00;;;16.60;99.90;;;;;;5119152;28;20026;-79
2023/08/27 10:45:41;;;;;;;0.98;0.00;;;16.50;99.90;;;;;;5120101;28;20020;-79
2023/08/27 10:48:16;;;;;;;0.00;0.00;;;16.60;99.90;;;;;;5119233;28;20060;-79
2023/08/27 10:51:08;;;;;;;0.10;0.00;;;16.10;99.90;;;;;;5119703;28;20042;-78
2023/08/27 10:53:49;;;;;;;0.32;0.10;;;16.00;99.90;;;;;;5112575;28;20060;-79
2023/08/27 10:56:49;;;;;;;0.13;0.00;;;15.80;99.90;;;;;;5119314;28;20157;-80
2023/08/27 10:59:28;;;;;;;0.00;0.00;;;15.80;99.90;;;;;;5085711;28;20028;-79
2023/08/27 11:01:54;;;;;;;1.70;0.00;;;15.80;99.90;;;;;;5100855;28;20020;-79
2023/08/27 11:04:19;;;;;;;0.05;0.00;;;16.20;99.90;;;;;;5099562;28;20348;-77
2023/08/27 11:06:48;;;;;;;1.20;0.00;;;15.80;99.90;;;;;;5118750;28;20115;-79
2023/08/27 11:09:24;;;;;;;0.00;0.00;;;15.90;99.90;;;;;;5119280;28;20015;-78
2023/08/27 11:11:55;;;;;;;1.55;0.00;;;15.90;99.90;;;;;;5119405;28;20015;-79
2023/08/27 11:14:22;;;;;;;0.20;0.00;;;16.00;99.90;;;;;;5100796;28;20061;-79
2023/08/27 11:16:53;;;;;;;0.00;0.00;;;16.10;99.90;;;;;;5101089;28;20565;-77
2023/08/27 11:19:38;;;;;;;0.20;0.00;;;16.30;99.90;;;;;;5119240;28;20024;-78
2023/08/27 11:22:13;;;;;;;0.22;0.00;;;16.50;99.90;;;;;;5098615;28;20395;-78
2023/08/27 11:24:43;;;;;;;2.20;0.00;;;16.50;99.90;;;;;;5116835;28;20107;-78
2023/08/27 11:27:10;;;;;;;0.20;0.00;;;16.50;99.90;;;;;;5116645;28;20015;-78
2023/08/27 11:29:41;;;;;;;0.20;0.00;;;16.70;99.90;;;;;;5118557;28;20387;-79
2023/08/27 11:32:11;;;;;;;2.17;0.00;;;17.40;99.90;;;;;;5118587;28;20027;-79
2023/08/27 11:34:38;;;;;;;0.00;0.00;;;17.50;99.90;;;;;;5118733;28;20020;-79
2023/08/27 11:37:04;;;;;;;0.20;0.00;;;17.50;99.90;;;;;;5100421;28;20053;-78
2023/08/27 11:39:33;;;;;;;1.33;0.15;;;17.60;99.90;;;;;;5100165;28;20053;-79
2023/08/27 11:41:59;;;;;;;0.28;0.00;;;17.50;99.90;;;;;;5118639;28;20359;-79
2023/08/27 11:44:25;;;;;;;0.10;0.00;;;17.50;99.90;;;;;;5098971;28;20015;-79
2023/08/27 11:46:51;;;;;;;0.45;0.15;;;17.50;99.90;;;;;;5118339;28;20080;-78
2023/08/27 11:49:28;;;;;;;0.63;0.00;;;17.70;99.90;;;;;;5099414;28;20087;-80
2023/08/27 11:51:56;;;;;;;0.10;0.00;;;17.60;99.90;;;;;;5118029;28;20024;-77
2023/08/27 11:54:24;;;;;;;0.55;0.00;;;17.60;99.90;;;;;;5117198;28;20023;-79
2023/08/27 11:56:51;;;;;;;0.95;0.13;;;17.50;99.90;;;;;;5117339;28;20380;-78
2023/08/27 11:59:17;;;;;;;0.35;0.00;;;17.60;99.90;;;;;;5116878;28;20023;-78
2023/08/27 12:01:43;;;;;;;1.20;0.10;;;17.50;99.90;;;;;;5118310;28;20042;-78
2023/08/27 12:04:11;;;;;;;0.82;0.00;;;17.50;99.90;;;;;;5099255;28;20114;-79
2023/08/27 12:06:36;;;;;;;2.73;0.10;;;17.70;99.90;;;;;;5118391;28;20023;-79
2023/08/27 12:09:03;;;;;;;0.00;0.00;;;17.90;99.90;;;;;;5118149;28;20104;-80
2023/08/27 12:11:30;;;;;;;0.65;0.15;;;17.80;99.90;;;;;;5117941;28;20483;-80
2023/08/27 12:14:01;;;;;;;0.55;0.20;;;18.00;99.90;;;;;;5110211;28;20538;-80
2023/08/27 12:16:32;;;;;;;0.00;0.00;;;18.20;99.90;;;;;;5118018;28;20088;-79
2023/08/27 12:19:03;;;;;;;0.47;0.00;;;18.40;99.90;;;;;;5116408;28;20020;-79
2023/08/27 12:21:32;;;;;;;0.00;0.00;;;18.90;99.90;;;;;;5102110;28;20379;-76
2023/08/27 12:23:58;;;;;;;0.85;0.00;;;19.10;99.90;;;;;;5116199;28;20093;-78
2023/08/27 12:26:23;;;;;;;0.08;0.00;;;19.30;99.90;;;;;;5116440;28;20063;-80
2023/08/27 12:28:52;;;;;;;0.93;0.00;;;20.70;99.90;;;;;;5116867;28;20039;-79
2023/08/27 12:31:25;;;;;;;1.48;0.35;;;19.20;99.90;;;;;;5098719;28;20016;-78
2023/08/27 12:33:58;;;;;;;0.28;0.00;;;19.40;99.90;;;;;;5118155;28;20039;-79
2023/08/27 12:36:26;;;;;;;0.10;0.00;;;20.00;99.90;;;;;;5117593;28;20477;-78
2023/08/27 12:38:52;;;;;;;0.65;0.20;;;20.00;99.90;;;;;;5117418;28;20152;-78
2023/08/27 12:41:18;;;;;;;1.27;0.00;;;20.60;99.90;;;;;;5116707;28;20455;-78
2023/08/27 12:43:44;;;;;;;2.63;0.00;;;21.00;99.90;;;;;;5116809;28;20023;-77
2023/08/27 12:46:10;;;;;;;1.80;0.00;;;;;;;;;;5115865;28;20451;-78
2023/08/27 12:48:36;;;;;;;1.08;0.00;;;21.20;99.90;;;;;;5116975;28;20494;-78